sensor_id;sensor_type;location;lat;lon;timestamp;pressure;altitude;pressure_sealevel;temperature;humidity
73103;BME280;61294;65.988;29.172;2022-11-04T00:00:28;98384.78;;;-1.34;100.00
73103;BME280;61294;65.988;29.172;2022-11-04T00:02:54;98421.84;;;-1.11;100.00
73103;BME280;61294;65.988;29.172;2022-11-04T00:05:20;98416.56;;;-1.14;100.00
73103;BME280;61294;65.988;29.172;2022-11-04T00:07:46;98412.16;;;-1.17;100.00
73103;BME280;61294;65.988;29.172;2022-11-04T00:10:30;98423.34;;;-1.18;100.00
73103;BME280;61294;65.988;29.172;2022-11-04T00:13:14;98425.97;;;-1.16;100.00
73103;BME280;61294;65.988;29.172;2022-11-04T00:15:39;98426.84;;;-1.16;100.00
73103;BME280;61294;65.988;29.172;2022-11-04T00:18:37;98422.56;;;-1.15;100.00
73103;BME280;61294;65.988;29.172;2022-11-04T00:21:03;98413.06;;;-1.16;100.00
73103;BME280;61294;65.988;29.172;2022-11-04T00:23:48;98422.47;;;-1.17;100.00
73103;BME280;61294;65.988;29.172;2022-11-04T00:26:31;98421.66;;;-1.16;100.00
73103;BME280;61294;65.988;29.172;2022-11-04T00:29:29;98420.00;;;-1.15;100.00
73103;BME280;61294;65.988;29.172;2022-11-04T00:31:55;98416.56;;;-1.14;100.00
73103;BME280;61294;65.988;29.172;2022-11-04T00:34:39;98413.22;;;-1.12;100.00
73103;BME280;61294;65.988;29.172;2022-11-04T00:37:05;98399.06;;;-1.22;100.00
73103;BME280;61294;65.988;29.172;2022-11-04T00:39:31;98418.38;;;-1.12;100.00
73103;BME280;61294;65.988;29.172;2022-11-04T00:41:57;98419.19;;;-1.13;100.00
73103;BME280;61294;65.988;29.172;2022-11-04T00:44:22;98415.84;;;-1.10;100.00
73103;BME280;61294;65.988;29.172;2022-11-04T00:46:48;98419.25;;;-1.11;100.00
73103;BME280;61294;65.988;29.172;2022-11-04T00:49:14;98376.38;;;-1.29;100.00
73103;BME280;61294;65.988;29.172;2022-11-04T00:51:40;98410.63;;;-1.12;100.00
73103;BME280;61294;65.988;29.172;2022-11-04T00:54:06;98386.03;;;-1.25;100.00
73103;BME280;61294;65.988;29.172;2022-11-04T00:56:31;98417.50;;;-1.12;100.00
73103;BME280;61294;65.988;29.172;2022-11-04T00:59:01;98416.75;;;-1.10;100.00
73103;BME280;61294;65.988;29.172;2022-11-04T01:01:26;98415.84;;;-1.10;100.00
73103;BME280;61294;65.988;29.172;2022-11-04T01:03:53;98395.53;;;-1.24;100.00
73103;BME280;61294;65.988;29.172;2022-11-04T01:06:21;98421.03;;;-1.10;100.00
73103;BME280;61294;65.988;29.172;2022-11-04T01:08:48;98405.84;;;-1.25;100.00
73103;BME280;61294;65.988;29.172;2022-11-04T01:11:14;98424.31;;;-1.14;100.00
73103;BME280;61294;65.988;29.172;2022-11-04T01:13:41;98422.78;;;-1.09;100.00
73103;BME280;61294;65.988;29.172;2022-11-04T01:16:09;98410.47;;;-1.16;100.00
73103;BME280;61294;65.988;29.172;2022-11-04T01:18:35;98434.97;;;-1.07;100.00
73103;BME280;61294;65.988;29.172;2022-11-04T01:21:03;98445.31;;;-1.07;100.00
73103;BME280;61294;65.988;29.172;2022-11-04T01:23:29;98434.13;;;-1.06;100.00
73103;BME280;61294;65.988;29.172;2022-11-04T01:25:55;98447.00;;;-1.07;100.00
73103;BME280;61294;65.988;29.172;2022-11-04T01:28:20;98453.88;;;-1.08;100.00
73103;BME280;61294;65.988;29.172;2022-11-04T01:30:46;98440.72;;;-1.14;100.00
73103;BME280;61294;65.988;29.172;2022-11-04T01:33:12;98421.56;;;-1.19;100.00
73103;BME280;61294;65.988;29.172;2022-11-04T01:35:38;98442.72;;;-1.07;100.00
73103;BME280;61294;65.988;29.172;2022-11-04T01:38:03;98430.66;;;-1.06;100.00
73103;BME280;61294;65.988;29.172;2022-11-04T01:40:35;98431.63;;;-1.04;100.00
73103;BME280;61294;65.988;29.172;2022-11-04T01:43:01;98428.19;;;-1.03;100.00
73103;BME280;61294;65.988;29.172;2022-11-04T01:45:27;98407.19;;;-1.12;100.00
73103;BME280;61294;65.988;29.172;2022-11-04T01:47:59;98422.09;;;-1.05;100.00
73103;BME280;61294;65.988;29.172;2022-11-04T01:50:29;98400.06;;;-1.18;100.00
73103;BME280;61294;65.988;29.172;2022-11-04T01:55:58;98415.09;;;-1.08;100.00
73103;BME280;61294;65.988;29.172;2022-11-04T01:58:31;98426.56;;;-1.01;100.00
73103;BME280;61294;65.988;29.172;2022-11-04T02:00:58;98423.13;;;-1.00;100.00
73103;BME280;61294;65.988;29.172;2022-11-04T02:03:37;98393.28;;;-1.14;100.00
73103;BME280;61294;65.988;29.172;2022-11-04T02:06:04;98429.84;;;-1.05;100.00
73103;BME280;61294;65.988;29.172;2022-11-04T02:08:31;98441.06;;;-1.05;100.00
73103;BME280;61294;65.988;29.172;2022-11-04T02:10:59;98423.91;;;-1.02;100.00
73103;BME280;61294;65.988;29.172;2022-11-04T02:13:26;98420.16;;;-1.11;100.00
73103;BME280;61294;65.988;29.172;2022-11-04T02:16:19;98430.88;;;-1.00;100.00
73103;BME280;61294;65.988;29.172;2022-11-04T02:22:26;98420.47;;;-1.01;100.00
73103;BME280;61294;65.988;29.172;2022-11-04T02:30:06;98375.16;;;-1.16;100.00
73103;BME280;61294;65.988;29.172;2022-11-04T02:35:38;98394.63;;;-1.01;100.00
73103;BME280;61294;65.988;29.172;2022-11-04T02:38:20;98399.03;;;-0.99;100.00
73103;BME280;61294;65.988;29.172;2022-11-04T02:41:10;98392.94;;;-1.01;100.00
73103;BME280;61294;65.988;29.172;2022-11-04T02:46:52;98397.09;;;-1.05;100.00
73103;BME280;61294;65.988;29.172;2022-11-04T02:49:44;98402.34;;;-1.03;100.00
73103;BME280;61294;65.988;29.172;2022-11-04T02:52:18;98383.97;;;-1.11;100.00
73103;BME280;61294;65.988;29.172;2022-11-04T02:55:15;98403.22;;;-1.02;100.00
73103;BME280;61294;65.988;29.172;2022-11-04T02:57:39;98388.31;;;-1.10;100.00
73103;BME280;61294;65.988;29.172;2022-11-04T03:00:08;98377.69;;;-1.17;100.00
73103;BME280;61294;65.988;29.172;2022-11-04T03:02:39;98388.06;;;-1.16;100.00
73103;BME280;61294;65.988;29.172;2022-11-04T03:05:10;98420.47;;;-1.01;100.00
73103;BME280;61294;65.988;29.172;2022-11-04T03:07:40;98406.63;;;-1.03;100.00
73103;BME280;61294;65.988;29.172;2022-11-04T03:10:12;98403.88;;;-1.08;100.00
73103;BME280;61294;65.988;29.172;2022-11-04T03:12:50;98398.94;;;-1.02;100.00
73103;BME280;61294;65.988;29.172;2022-11-04T03:15:23;98383.25;;;-1.07;100.00
73103;BME280;61294;65.988;29.172;2022-11-04T03:20:58;98406.16;;;-0.93;100.00
73103;BME280;61294;65.988;29.172;2022-11-04T03:23:26;98393.75;;;-1.02;100.00
73103;BME280;61294;65.988;29.172;2022-11-04T03:25:56;98407.84;;;-0.94;100.00
73103;BME280;61294;65.988;29.172;2022-11-04T03:28:36;98416.47;;;-0.93;100.00
73103;BME280;61294;65.988;29.172;2022-11-04T03:31:08;98411.31;;;-0.93;100.00
73103;BME280;61294;65.988;29.172;2022-11-04T03:33:46;98421.59;;;-0.95;100.00
73103;BME280;61294;65.988;29.172;2022-11-04T03:36:12;98416.47;;;-0.93;100.00
73103;BME280;61294;65.988;29.172;2022-11-04T03:38:38;98393.53;;;-1.08;100.00
73103;BME280;61294;65.988;29.172;2022-11-04T03:41:11;98409.59;;;-0.93;100.00
73103;BME280;61294;65.988;29.172;2022-11-04T03:43:39;98420.94;;;-0.89;100.00
73103;BME280;61294;65.988;29.172;2022-11-04T03:46:06;98419.19;;;-0.90;100.00
73103;BME280;61294;65.988;29.172;2022-11-04T03:48:32;98426.94;;;-0.90;100.00
73103;BME280;61294;65.988;29.172;2022-11-04T03:51:00;98425.25;;;-0.90;100.00
73103;BME280;61294;65.988;29.172;2022-11-04T03:53:27;98408.56;;;-0.98;100.00
73103;BME280;61294;65.988;29.172;2022-11-04T04:01:59;98417.44;;;-0.91;100.00
73103;BME280;61294;65.988;29.172;2022-11-04T04:04:32;98416.59;;;-0.90;100.00
73103;BME280;61294;65.988;29.172;2022-11-04T04:07:16;98416.59;;;-0.90;100.00
73103;BME280;61294;65.988;29.172;2022-11-04T04:09:45;98414.00;;;-0.90;100.00
73103;BME280;61294;65.988;29.172;2022-11-04T04:12:17;98407.16;;;-0.90;100.00
73103;BME280;61294;65.988;29.172;2022-11-04T04:14:51;98412.38;;;-0.88;100.00
73103;BME280;61294;65.988;29.172;2022-11-04T04:17:30;98401.06;;;-0.90;100.00
73103;BME280;61294;65.988;29.172;2022-11-04T04:20:18;98389.72;;;-0.95;100.00
73103;BME280;61294;65.988;29.172;2022-11-04T04:22:52;98392.34;;;-0.94;100.00
73103;BME280;61294;65.988;29.172;2022-11-04T04:25:22;98401.78;;;-0.94;100.00
73103;BME280;61294;65.988;29.172;2022-11-04T04:28:09;98407.09;;;-0.91;100.00
73103;BME280;61294;65.988;29.172;2022-11-04T04:30:38;98441.38;;;-0.97;100.00
73103;BME280;61294;65.988;29.172;2022-11-04T04:33:10;98426.44;;;-1.04;100.00
73103;BME280;61294;65.988;29.172;2022-11-04T04:35:42;98441.53;;;-0.92;100.00
73103;BME280;61294;65.988;29.172;2022-11-04T04:38:22;98409.81;;;-1.11;100.00
73103;BME280;61294;65.988;29.172;2022-11-04T04:41:19;98432.16;;;-0.89;100.00
73103;BME280;61294;65.988;29.172;2022-11-04T04:44:14;98435.69;;;-0.87;100.00
73103;BME280;61294;65.988;29.172;2022-11-04T04:47:01;98400.44;;;-1.07;100.00
73103;BME280;61294;65.988;29.172;2022-11-04T04:49:28;98427.00;;;-0.89;100.00
73103;BME280;61294;65.988;29.172;2022-11-04T04:52:03;98439.16;;;-0.86;100.00
73103;BME280;61294;65.988;29.172;2022-11-04T04:54:31;98438.34;;;-0.85;100.00
73103;BME280;61294;65.988;29.172;2022-11-04T04:56:57;98440.94;;;-0.85;100.00
73103;BME280;61294;65.988;29.172;2022-11-04T04:59:22;98434.88;;;-0.85;100.00
73103;BME280;61294;65.988;29.172;2022-11-04T05:01:48;98439.25;;;-0.83;100.00
73103;BME280;61294;65.988;29.172;2022-11-04T05:04:14;98439.25;;;-0.83;100.00
73103;BME280;61294;65.988;29.172;2022-11-04T05:06:40;98436.78;;;-0.80;100.00
73103;BME280;61294;65.988;29.172;2022-11-04T05:09:06;98446.31;;;-0.79;100.00
73103;BME280;61294;65.988;29.172;2022-11-04T05:11:31;98413.09;;;-0.92;100.00
73103;BME280;61294;65.988;29.172;2022-11-04T05:13:57;98387.59;;;-1.06;100.00
73103;BME280;61294;65.988;29.172;2022-11-04T05:16:23;98428.81;;;-0.86;100.00
73103;BME280;61294;65.988;29.172;2022-11-04T05:18:50;98421.00;;;-0.88;100.00
73103;BME280;61294;65.988;29.172;2022-11-04T05:21:16;98415.88;;;-0.86;100.00
73103;BME280;61294;65.988;29.172;2022-11-04T05:23:42;98409.75;;;-0.90;100.00
73103;BME280;61294;65.988;29.172;2022-11-04T05:26:08;98398.38;;;-0.93;100.00
73103;BME280;61294;65.988;29.172;2022-11-04T05:28:34;98415.84;;;-0.88;100.00
73103;BME280;61294;65.988;29.172;2022-11-04T05:31:05;98431.63;;;-0.80;100.00
73103;BME280;61294;65.988;29.172;2022-11-04T05:33:31;98414.97;;;-0.88;100.00
73103;BME280;61294;65.988;29.172;2022-11-04T05:36:11;98399.91;;;-0.98;100.00
73103;BME280;61294;65.988;29.172;2022-11-04T05:38:37;98445.44;;;-0.79;100.00
73103;BME280;61294;65.988;29.172;2022-11-04T05:41:05;98423.66;;;-0.86;100.00
73103;BME280;61294;65.988;29.172;2022-11-04T05:43:31;98423.66;;;-0.86;100.00
73103;BME280;61294;65.988;29.172;2022-11-04T05:45:58;98428.97;;;-0.81;100.00
73103;BME280;61294;65.988;29.172;2022-11-04T05:48:24;98422.81;;;-0.85;100.00
73103;BME280;61294;65.988;29.172;2022-11-04T05:50:51;98398.16;;;-0.99;100.00
73103;BME280;61294;65.988;29.172;2022-11-04T05:53:17;98423.53;;;-0.89;100.00
73103;BME280;61294;65.988;29.172;2022-11-04T05:55:43;98430.63;;;-0.83;100.00
73103;BME280;61294;65.988;29.172;2022-11-04T05:58:09;98442.88;;;-0.79;100.00
73103;BME280;61294;65.988;29.172;2022-11-04T06:00:35;98451.84;;;-0.70;100.00
73103;BME280;61294;65.988;29.172;2022-11-04T06:03:01;98459.56;;;-0.71;100.00
73103;BME280;61294;65.988;29.172;2022-11-04T06:05:27;98448.91;;;-0.79;100.00
73103;BME280;61294;65.988;29.172;2022-11-04T06:07:54;98457.84;;;-0.71;100.00
73103;BME280;61294;65.988;29.172;2022-11-04T06:10:20;98425.41;;;-0.85;100.00
73103;BME280;61294;65.988;29.172;2022-11-04T06:12:46;98444.63;;;-0.78;100.00
73103;BME280;61294;65.988;29.172;2022-11-04T06:15:12;98443.84;;;-0.76;100.00
73103;BME280;61294;65.988;29.172;2022-11-04T06:17:38;98429.88;;;-0.81;100.00
73103;BME280;61294;65.988;29.172;2022-11-04T06:20:04;98440.38;;;-0.76;100.00
73103;BME280;61294;65.988;29.172;2022-11-04T06:22:31;98441.91;;;-0.81;100.00
73103;BME280;61294;65.988;29.172;2022-11-04T06:24:57;98434.50;;;-0.72;100.00
73103;BME280;61294;65.988;29.172;2022-11-04T06:27:22;98433.53;;;-0.74;100.00
73103;BME280;61294;65.988;29.172;2022-11-04T06:29:48;98436.94;;;-0.77;100.00
73103;BME280;61294;65.988;29.172;2022-11-04T06:32:16;98446.63;;;-0.71;100.00
73103;BME280;61294;65.988;29.172;2022-11-04T06:34:42;98452.88;;;-0.64;100.00
73103;BME280;61294;65.988;29.172;2022-11-04T06:37:08;98455.47;;;-0.64;100.00
73103;BME280;61294;65.988;29.172;2022-11-04T06:39:35;98469.50;;;-0.58;100.00
73103;BME280;61294;65.988;29.172;2022-11-04T06:42:01;98453.88;;;-0.61;100.00
73103;BME280;61294;65.988;29.172;2022-11-04T06:44:27;98465.66;;;-0.45;100.00
73103;BME280;61294;65.988;29.172;2022-11-04T06:46:53;98459.66;;;-0.44;100.00
73103;BME280;61294;65.988;29.172;2022-11-04T06:49:20;98428.72;;;-0.65;100.00
73103;BME280;61294;65.988;29.172;2022-11-04T06:51:48;98476.16;;;-0.40;100.00
73103;BME280;61294;65.988;29.172;2022-11-04T06:54:14;98478.09;;;-0.35;100.00
73103;BME280;61294;65.988;29.172;2022-11-04T06:56:41;98470.53;;;-0.30;100.00
73103;BME280;61294;65.988;29.172;2022-11-04T06:59:07;98474.75;;;-0.32;100.00
73103;BME280;61294;65.988;29.172;2022-11-04T07:01:35;98479.88;;;-0.33;100.00
73103;BME280;61294;65.988;29.172;2022-11-04T07:04:02;98476.66;;;-0.26;100.00
73103;BME280;61294;65.988;29.172;2022-11-04T07:06:31;98452.97;;;-0.37;100.00
73103;BME280;61294;65.988;29.172;2022-11-04T07:08:59;98470.56;;;-0.28;100.00
73103;BME280;61294;65.988;29.172;2022-11-04T07:11:26;98471.44;;;-0.28;100.00
73103;BME280;61294;65.988;29.172;2022-11-04T07:13:54;98463.56;;;-0.31;100.00
73103;BME280;61294;65.988;29.172;2022-11-04T07:16:19;98457.72;;;-0.25;100.00
73103;BME280;61294;65.988;29.172;2022-11-04T07:18:45;98461.28;;;-0.22;100.00
73103;BME280;61294;65.988;29.172;2022-11-04T07:21:13;98433.06;;;-0.40;100.00
73103;BME280;61294;65.988;29.172;2022-11-04T07:23:39;98451.50;;;-0.30;100.00
73103;BME280;61294;65.988;29.172;2022-11-04T07:26:07;98467.28;;;-0.24;100.00
73103;BME280;61294;65.988;29.172;2022-11-04T07:28:34;98460.41;;;-0.22;100.00
73103;BME280;61294;65.988;29.172;2022-11-04T07:31:01;98463.94;;;-0.20;100.00
73103;BME280;61294;65.988;29.172;2022-11-04T07:33:27;98402.03;;;-0.40;100.00
73103;BME280;61294;65.988;29.172;2022-11-04T07:35:54;98457.56;;;-0.06;100.00
73103;BME280;61294;65.988;29.172;2022-11-04T07:38:22;98461.00;;;-0.05;100.00
73103;BME280;61294;65.988;29.172;2022-11-04T07:40:48;98438.03;;;-0.20;100.00
73103;BME280;61294;65.988;29.172;2022-11-04T07:43:14;98461.81;;;-0.06;100.00
73103;BME280;61294;65.988;29.172;2022-11-04T07:45:41;98486.94;;;-0.04;100.00
73103;BME280;61294;65.988;29.172;2022-11-04T07:48:07;98462.78;;;-0.04;100.00
73103;BME280;61294;65.988;29.172;2022-11-04T07:50:33;98444.41;;;-0.10;100.00
73103;BME280;61294;65.988;29.172;2022-11-04T07:52:59;98466.38;;;0.01;100.00
73103;BME280;61294;65.988;29.172;2022-11-04T07:55:25;98438.56;;;-0.05;100.00
73103;BME280;61294;65.988;29.172;2022-11-04T07:57:53;98451.75;;;0.02;100.00
73103;BME280;61294;65.988;29.172;2022-11-04T08:00:19;98459.81;;;0.11;100.00
73103;BME280;61294;65.988;29.172;2022-11-04T08:02:45;98464.91;;;0.08;100.00
73103;BME280;61294;65.988;29.172;2022-11-04T08:05:12;98459.63;;;0.05;100.00
73103;BME280;61294;65.988;29.172;2022-11-04T08:07:39;98444.91;;;0.04;100.00
73103;BME280;61294;65.988;29.172;2022-11-04T08:10:05;98448.50;;;0.07;100.00
73103;BME280;61294;65.988;29.172;2022-11-04T08:12:31;98473.97;;;0.21;100.00
73103;BME280;61294;65.988;29.172;2022-11-04T08:14:58;98461.25;;;0.28;100.00
73103;BME280;61294;65.988;29.172;2022-11-04T08:17:24;98467.47;;;0.33;100.00
73103;BME280;61294;65.988;29.172;2022-11-04T08:19:50;98426.66;;;0.26;100.00
73103;BME280;61294;65.988;29.172;2022-11-04T08:22:16;98452.56;;;0.54;100.00
73103;BME280;61294;65.988;29.172;2022-11-04T08:24:41;98451.16;;;0.63;100.00
73103;BME280;61294;65.988;29.172;2022-11-04T08:27:07;98440.03;;;0.67;100.00
73103;BME280;61294;65.988;29.172;2022-11-04T08:29:35;98460.75;;;0.95;100.00
73103;BME280;61294;65.988;29.172;2022-11-04T08:32:02;98458.59;;;1.09;100.00
73103;BME280;61294;65.988;29.172;2022-11-04T08:34:28;98454.59;;;1.20;100.00
73103;BME280;61294;65.988;29.172;2022-11-04T08:36:53;98440.56;;;1.13;100.00
73103;BME280;61294;65.988;29.172;2022-11-04T08:39:22;98460.22;;;1.07;100.00
73103;BME280;61294;65.988;29.172;2022-11-04T08:41:48;98458.19;;;0.96;100.00
73103;BME280;61294;65.988;29.172;2022-11-04T08:44:15;98458.59;;;0.80;100.00
73103;BME280;61294;65.988;29.172;2022-11-04T08:46:43;98439.84;;;0.61;100.00
73103;BME280;61294;65.988;29.172;2022-11-04T08:49:09;98443.19;;;0.57;100.00
73103;BME280;61294;65.988;29.172;2022-11-04T08:51:38;98464.06;;;0.62;100.00
73103;BME280;61294;65.988;29.172;2022-11-04T08:54:05;98469.28;;;0.63;100.00
73103;BME280;61294;65.988;29.172;2022-11-04T08:56:35;98468.31;;;0.60;100.00
73103;BME280;61294;65.988;29.172;2022-11-04T08:59:01;98471.66;;;0.56;100.00
73103;BME280;61294;65.988;29.172;2022-11-04T09:01:33;98472.56;;;0.58;100.00
73103;BME280;61294;65.988;29.172;2022-11-04T09:03:59;98459.66;;;0.59;100.00
73103;BME280;61294;65.988;29.172;2022-11-04T09:06:32;98438.66;;;0.50;100.00
73103;BME280;61294;65.988;29.172;2022-11-04T09:08:58;98464.84;;;0.59;100.00
73103;BME280;61294;65.988;29.172;2022-11-04T09:11:31;98468.13;;;0.54;100.00
73103;BME280;61294;65.988;29.172;2022-11-04T09:13:59;98454.03;;;0.45;100.00
73103;BME280;61294;65.988;29.172;2022-11-04T09:16:26;98470.81;;;0.57;100.00
73103;BME280;61294;65.988;29.172;2022-11-04T09:18:54;98493.53;;;0.65;100.00
73103;BME280;61294;65.988;29.172;2022-11-04T09:21:20;98487.63;;;0.69;100.00
73103;BME280;61294;65.988;29.172;2022-11-04T09:23:46;98490.22;;;0.69;100.00
73103;BME280;61294;65.988;29.172;2022-11-04T09:26:13;98478.94;;;0.67;100.00
73103;BME280;61294;65.988;29.172;2022-11-04T09:28:39;98482.41;;;0.68;100.00
73103;BME280;61294;65.988;29.172;2022-11-04T09:31:10;98489.44;;;0.72;100.00
73103;BME280;61294;65.988;29.172;2022-11-04T09:33:36;98458.75;;;0.57;100.00
73103;BME280;61294;65.988;29.172;2022-11-04T09:36:02;98480.06;;;0.76;100.00
73103;BME280;61294;65.988;29.172;2022-11-04T09:38:28;98463.88;;;0.83;100.00
73103;BME280;61294;65.988;29.172;2022-11-04T09:40:54;98474.19;;;0.81;100.00
73103;BME280;61294;65.988;29.172;2022-11-04T09:43:26;98454.81;;;0.70;100.00
73103;BME280;61294;65.988;29.172;2022-11-04T09:45:54;98476.00;;;0.85;100.00
73103;BME280;61294;65.988;29.172;2022-11-04T09:48:28;98451.75;;;0.83;100.00
73103;BME280;61294;65.988;29.172;2022-11-04T09:51:02;98475.06;;;0.82;100.00
73103;BME280;61294;65.988;29.172;2022-11-04T09:54:00;98484.78;;;0.89;100.00
73103;BME280;61294;65.988;29.172;2022-11-04T09:56:34;98486.50;;;0.89;100.00
73103;BME280;61294;65.988;29.172;2022-11-04T09:59:05;98487.28;;;0.86;100.00
73103;BME280;61294;65.988;29.172;2022-11-04T10:01:38;98478.72;;;0.89;100.00
73103;BME280;61294;65.988;29.172;2022-11-04T10:15:16;98489.25;;;0.93;100.00
73103;BME280;61294;65.988;29.172;2022-11-04T10:24:00;98483.91;;;0.89;100.00
73103;BME280;61294;65.988;29.172;2022-11-04T10:26:48;98480.34;;;0.85;100.00
73103;BME280;61294;65.988;29.172;2022-11-04T10:29:32;98496.94;;;0.90;100.00
73103;BME280;61294;65.988;29.172;2022-11-04T10:32:11;98491.88;;;0.95;100.00
73103;BME280;61294;65.988;29.172;2022-11-04T10:35:04;98471.09;;;0.93;100.00
73103;BME280;61294;65.988;29.172;2022-11-04T10:37:34;98480.81;;;1.00;100.00
73103;BME280;61294;65.988;29.172;2022-11-04T10:40:11;98464.72;;;0.83;100.00
73103;BME280;61294;65.988;29.172;2022-11-04T10:42:41;98490.16;;;0.95;100.00
73103;BME280;61294;65.988;29.172;2022-11-04T10:45:13;98487.69;;;0.98;100.00
73103;BME280;61294;65.988;29.172;2022-11-04T10:48:05;98469.28;;;0.91;100.00
73103;BME280;61294;65.988;29.172;2022-11-04T10:53:12;98452.00;;;0.91;100.00
73103;BME280;61294;65.988;29.172;2022-11-04T10:58:23;98456.41;;;0.94;100.00
73103;BME280;61294;65.988;29.172;2022-11-04T11:00:51;98475.72;;;1.03;100.00
73103;BME280;61294;65.988;29.172;2022-11-04T11:03:31;98465.28;;;1.02;100.00
73103;BME280;61294;65.988;29.172;2022-11-04T11:06:24;98449.25;;;0.86;100.00
73103;BME280;61294;65.988;29.172;2022-11-04T11:08:58;98478.34;;;1.05;100.00
73103;BME280;61294;65.988;29.172;2022-11-04T11:11:45;98471.47;;;1.06;100.00
73103;BME280;61294;65.988;29.172;2022-11-04T11:14:30;98481.94;;;1.09;100.00
73103;BME280;61294;65.988;29.172;2022-11-04T11:17:22;98465.06;;;0.94;100.00
73103;BME280;61294;65.988;29.172;2022-11-04T11:19:57;98474.88;;;1.05;100.00
73103;BME280;61294;65.988;29.172;2022-11-04T11:22:35;98488.94;;;1.11;100.00
73103;BME280;61294;65.988;29.172;2022-11-04T11:25:21;98481.00;;;1.07;100.00
73103;BME280;61294;65.988;29.172;2022-11-04T11:28:00;98460.94;;;1.01;100.00
73103;BME280;61294;65.988;29.172;2022-11-04T11:30:31;98467.94;;;1.03;100.00
73103;BME280;61294;65.988;29.172;2022-11-04T11:33:03;98476.69;;;1.07;100.00
73103;BME280;61294;65.988;29.172;2022-11-04T11:35:37;98467.22;;;1.09;100.00
73103;BME280;61294;65.988;29.172;2022-11-04T11:38:20;98478.47;;;1.10;100.00
73103;BME280;61294;65.988;29.172;2022-11-04T11:40:47;98463.31;;;0.93;100.00
73103;BME280;61294;65.988;29.172;2022-11-04T11:43:27;98465.16;;;0.97;100.00
73103;BME280;61294;65.988;29.172;2022-11-04T11:45:54;98485.25;;;1.05;100.00
73103;BME280;61294;65.988;29.172;2022-11-04T11:48:38;98482.84;;;1.11;100.00
73103;BME280;61294;65.988;29.172;2022-11-04T11:51:05;98461.97;;;1.06;100.00
73103;BME280;61294;65.988;29.172;2022-11-04T11:53:32;98451.25;;;0.95;100.00
73103;BME280;61294;65.988;29.172;2022-11-04T11:56:14;98472.94;;;0.97;100.00
73103;BME280;61294;65.988;29.172;2022-11-04T11:58:51;98472.13;;;0.98;100.00
73103;BME280;61294;65.988;29.172;2022-11-04T12:01:25;98473.84;;;0.99;100.00
73103;BME280;61294;65.988;29.172;2022-11-04T12:03:53;98470.41;;;0.99;100.00
73103;BME280;61294;65.988;29.172;2022-11-04T12:06:39;98480.81;;;1.00;100.00
73103;BME280;61294;65.988;29.172;2022-11-04T12:09:27;98469.41;;;0.95;100.00
73103;BME280;61294;65.988;29.172;2022-11-04T12:14:27;98472.13;;;0.98;100.00
73103;BME280;61294;65.988;29.172;2022-11-04T12:30:32;98478.03;;;0.94;100.00
73103;BME280;61294;65.988;29.172;2022-11-04T12:33:12;98471.03;;;0.92;100.00
73103;BME280;61294;65.988;29.172;2022-11-04T12:44:07;98472.59;;;0.86;100.00
73103;BME280;61294;65.988;29.172;2022-11-04T12:49:22;98491.75;;;0.90;100.00
73103;BME280;61294;65.988;29.172;2022-11-04T12:57:54;98483.66;;;0.81;100.00
73103;BME280;61294;65.988;29.172;2022-11-04T13:00:25;98497.56;;;0.83;100.00
73103;BME280;61294;65.988;29.172;2022-11-04T13:06:08;98485.19;;;0.74;100.00
73103;BME280;61294;65.988;29.172;2022-11-04T13:12:18;98454.28;;;0.53;100.00
73103;BME280;61294;65.988;29.172;2022-11-04T13:14:49;98490.13;;;0.66;100.00
73103;BME280;61294;65.988;29.172;2022-11-04T13:17:26;98469.13;;;0.57;100.00
73103;BME280;61294;65.988;29.172;2022-11-04T13:19:57;98491.22;;;0.73;100.00
73103;BME280;61294;65.988;29.172;2022-11-04T13:22:32;98494.75;;;0.77;100.00
73103;BME280;61294;65.988;29.172;2022-11-04T13:27:52;98493.06;;;0.77;100.00
73103;BME280;61294;65.988;29.172;2022-11-04T13:33:49;98507.72;;;0.77;100.00
73103;BME280;61294;65.988;29.172;2022-11-04T13:36:40;98493.91;;;0.76;100.00
73103;BME280;61294;65.988;29.172;2022-11-04T13:39:25;98504.13;;;0.72;100.00
73103;BME280;61294;65.988;29.172;2022-11-04T13:42:52;98452.47;;;0.50;100.00
73103;BME280;61294;65.988;29.172;2022-11-04T13:44:55;98506.09;;;0.79;100.00
73103;BME280;61294;65.988;29.172;2022-11-04T13:47:34;98508.78;;;0.82;100.00
73103;BME280;61294;65.988;29.172;2022-11-04T13:50:02;98497.53;;;0.81;100.00
73103;BME280;61294;65.988;29.172;2022-11-04T13:52:32;98499.22;;;0.81;100.00
73103;BME280;61294;65.988;29.172;2022-11-04T13:55:02;98493.13;;;0.79;100.00
73103;BME280;61294;65.988;29.172;2022-11-04T13:57:32;98495.75;;;0.80;100.00
73103;BME280;61294;65.988;29.172;2022-11-04T14:02:44;98494.09;;;0.82;100.00
73103;BME280;61294;65.988;29.172;2022-11-04T14:10:42;98490.72;;;0.85;100.00
73103;BME280;61294;65.988;29.172;2022-11-04T14:16:08;98482.00;;;0.83;100.00
73103;BME280;61294;65.988;29.172;2022-11-04T14:18:37;98472.47;;;0.82;100.00
73103;BME280;61294;65.988;29.172;2022-11-04T14:21:17;98476.09;;;0.87;100.00
73103;BME280;61294;65.988;29.172;2022-11-04T14:23:55;98482.84;;;0.82;100.00
73103;BME280;61294;65.988;29.172;2022-11-04T14:26:27;98479.34;;;0.80;100.00
73103;BME280;61294;65.988;29.172;2022-11-04T14:29:14;98488.13;;;0.85;100.00
73103;BME280;61294;65.988;29.172;2022-11-04T14:31:46;98495.94;;;0.86;100.00
73103;BME280;61294;65.988;29.172;2022-11-04T14:34:29;98479.56;;;0.88;100.00
73103;BME280;61294;65.988;29.172;2022-11-04T14:36:56;98481.97;;;0.81;100.00
73103;BME280;61294;65.988;29.172;2022-11-04T14:39:27;98490.03;;;0.91;100.00
73103;BME280;61294;65.988;29.172;2022-11-04T14:42:00;98473.38;;;0.84;100.00
73103;BME280;61294;65.988;29.172;2022-11-04T14:44:44;98454.00;;;0.73;100.00
73103;BME280;61294;65.988;29.172;2022-11-04T14:47:29;98478.69;;;0.87;100.00
73103;BME280;61294;65.988;29.172;2022-11-04T14:52:27;98466.38;;;0.80;100.00
73103;BME280;61294;65.988;29.172;2022-11-04T14:55:12;98488.94;;;0.84;100.00